createdAt,value
2018-11-05T00:01:17.855Z,75.02
2018-11-05T00:03:45.571Z,75.10
2018-11-05T00:06:13.309Z,75.16
2018-11-05T00:08:40.836Z,75.24
2018-11-05T00:11:09.007Z,75.35
2018-11-05T00:13:37.150Z,75.64
2018-11-05T00:16:04.718Z,75.89
2018-11-05T00:18:32.809Z,75.78
2018-11-05T00:21:00.891Z,75.80
2018-11-05T00:23:28.387Z,75.79
2018-11-05T00:25:56.438Z,75.65
2018-11-05T00:28:24.081Z,75.78
2018-11-05T00:30:52.563Z,75.79
2018-11-05T00:33:20.432Z,75.84
2018-11-05T00:35:47.909Z,75.98
2018-11-05T00:38:15.515Z,76.05
2018-11-05T00:40:43.343Z,75.97
2018-11-05T00:43:11.234Z,75.84
2018-11-05T00:45:38.881Z,75.59
2018-11-05T00:48:06.410Z,75.67
2018-11-05T00:50:34.268Z,75.57
2018-11-05T00:53:02.113Z,75.72
2018-11-05T00:55:29.816Z,75.51
2018-11-05T00:57:57.370Z,75.41
2018-11-05T01:00:25.192Z,75.37
2018-11-05T01:02:53.035Z,75.05
2018-11-05T01:05:21.469Z,75.02
2018-11-05T01:07:48.953Z,74.86
2018-11-05T01:10:16.583Z,74.66
2018-11-05T01:12:44.043Z,74.38
2018-11-05T01:15:11.554Z,74.40
2018-11-05T01:17:39.936Z,74.51
2018-11-05T01:20:07.572Z,74.72
2018-11-05T01:22:36.025Z,74.49
2018-11-05T01:25:04.366Z,74.29
2018-11-05T01:27:32.911Z,74.26
2018-11-05T01:30:00.492Z,74.31
2018-11-05T01:32:29.192Z,74.54
2018-11-05T01:34:56.604Z,74.61
2018-11-05T01:37:24.137Z,74.78
2018-11-05T01:39:51.678Z,74.71
2018-11-05T01:42:19.392Z,74.79
2018-11-05T01:44:47.133Z,74.56
2018-11-05T01:47:14.841Z,74.65
2018-11-05T01:49:42.514Z,74.22
2018-11-05T01:52:11.712Z,74.16
2018-11-05T01:54:39.445Z,74.72
2018-11-05T01:57:07.778Z,75.30
2018-11-05T01:59:35.743Z,75.93
2018-11-05T02:02:03.309Z,76.24
2018-11-05T02:04:31.823Z,76.36
2018-11-05T02:07:00.386Z,76.09
2018-11-05T02:09:28.363Z,75.94
2018-11-05T02:11:56.179Z,75.91
2018-11-05T02:14:23.910Z,75.95
2018-11-05T02:16:51.328Z,76.19
2018-11-05T02:19:18.986Z,76.49
2018-11-05T02:21:46.576Z,76.74
2018-11-05T02:24:14.978Z,76.96
2018-11-05T02:26:42.570Z,76.75
2018-11-05T02:29:10.173Z,76.33
2018-11-05T02:31:37.675Z,76.12
2018-11-05T02:34:05.295Z,75.85
2018-11-05T02:36:32.799Z,75.79
2018-11-05T02:39:00.392Z,75.72
2018-11-05T02:41:29.360Z,75.56
2018-11-05T02:43:57.006Z,75.61
2018-11-05T02:46:25.429Z,75.58
2018-11-05T02:48:55.196Z,75.17
2018-11-05T02:51:23.578Z,74.98
2018-11-05T02:53:51.198Z,74.86
2018-11-05T02:56:18.909Z,74.82
2018-11-05T02:58:46.575Z,74.66
2018-11-05T03:01:14.178Z,74.61
2018-11-05T03:03:41.865Z,74.54
2018-11-05T03:06:09.636Z,74.52
2018-11-05T03:08:37.244Z,74.60
2018-11-05T03:11:04.874Z,74.71
2018-11-05T03:13:32.487Z,74.62
2018-11-05T03:16:00.167Z,74.81
2018-11-05T03:18:28.737Z,74.92
2018-11-05T03:20:56.383Z,74.83
2018-11-05T03:23:24.141Z,74.98
2018-11-05T03:25:51.836Z,75.04
2018-11-05T03:28:20.663Z,75.21
2018-11-05T03:30:48.375Z,75.47
2018-11-05T03:33:16.104Z,75.82
2018-11-05T03:35:43.724Z,75.77
2018-11-05T03:38:12.168Z,75.74
2018-11-05T03:40:39.735Z,75.62
2018-11-05T03:43:07.642Z,75.98
2018-11-05T03:45:35.313Z,76.36
2018-11-05T03:48:04.123Z,76.23
2018-11-05T03:50:31.796Z,76.12
2018-11-05T03:52:59.381Z,76.11
2018-11-05T03:55:27.005Z,76.05
2018-11-05T03:57:54.883Z,76.17
2018-11-05T04:00:23.153Z,75.95
2018-11-05T04:02:51.067Z,76.11
2018-11-05T04:05:18.608Z,76.00
2018-11-05T04:07:46.099Z,76.06
2018-11-05T04:10:13.607Z,76.11
2018-11-05T04:12:41.047Z,76.58
2018-11-05T04:15:08.544Z,76.68
2018-11-05T04:17:35.978Z,76.72
2018-11-05T04:20:04.388Z,77.01
2018-11-05T04:22:31.847Z,77.23
2018-11-05T04:24:59.280Z,77.56
2018-11-05T04:27:26.722Z,77.53
2018-11-05T04:29:54.174Z,77.50
2018-11-05T04:32:21.610Z,77.68
2018-11-05T04:34:49.162Z,78.09
2018-11-05T04:37:16.637Z,78.24
2018-11-05T04:39:44.087Z,78.46
2018-11-05T04:42:11.549Z,78.62
2018-11-05T04:44:39.037Z,78.49
2018-11-05T04:47:06.475Z,78.20
2018-11-05T04:49:34.687Z,77.80
2018-11-05T04:52:02.142Z,77.88
2018-11-05T04:54:29.597Z,78.13
2018-11-05T04:56:57.054Z,78.22
2018-11-05T04:59:24.487Z,78.32
2018-11-05T05:01:52.151Z,78.25
2018-11-05T05:04:19.617Z,78.36
2018-11-05T05:06:47.064Z,78.27
2018-11-05T05:09:14.581Z,78.03
2018-11-05T05:11:42.036Z,77.77
2018-11-05T05:14:09.500Z,77.55
2018-11-05T05:16:36.967Z,77.26
2018-11-05T05:19:04.419Z,77.55
2018-11-05T05:21:31.866Z,78.43
2018-11-05T05:23:59.357Z,79.37
2018-11-05T05:26:26.827Z,79.66
2018-11-05T05:28:54.268Z,79.69
2018-11-05T05:31:21.724Z,79.48
2018-11-05T05:33:49.170Z,79.08
2018-11-05T05:36:16.653Z,79.00
2018-11-05T05:38:44.148Z,79.00
2018-11-05T05:41:11.681Z,79.03
2018-11-05T05:43:39.119Z,79.05
2018-11-05T05:46:06.560Z,78.70
2018-11-05T05:48:34.087Z,78.36
2018-11-05T05:51:01.754Z,78.54
2018-11-05T05:53:29.209Z,78.66
2018-11-05T05:55:56.684Z,78.65
2018-11-05T05:58:24.195Z,78.24
2018-11-05T06:00:51.640Z,77.99
2018-11-05T06:03:19.149Z,78.08
2018-11-05T06:05:46.653Z,78.19
2018-11-05T06:08:14.066Z,77.98
2018-11-05T06:10:41.651Z,77.73
2018-11-05T06:13:09.223Z,77.92
2018-11-05T06:15:36.669Z,77.92
2018-11-05T06:18:04.117Z,78.07
2018-11-05T06:20:31.691Z,78.29
2018-11-05T06:22:59.226Z,78.34
2018-11-05T06:25:26.819Z,78.31
2018-11-05T06:27:54.321Z,78.36
2018-11-05T06:30:21.973Z,78.54
2018-11-05T06:32:49.411Z,78.94
2018-11-05T06:35:16.919Z,78.81
2018-11-05T06:37:44.486Z,78.74
2018-11-05T06:40:11.964Z,78.80
2018-11-05T06:42:39.409Z,78.52
2018-11-05T06:45:06.927Z,78.24
2018-11-05T06:47:34.351Z,78.39
2018-11-05T06:50:01.827Z,78.31
2018-11-05T06:52:29.287Z,78.15
2018-11-05T06:54:56.764Z,77.84
2018-11-05T06:57:25.254Z,77.94
2018-11-05T06:59:52.699Z,77.83
2018-11-05T07:02:20.280Z,77.87
2018-11-05T07:04:47.733Z,77.95
2018-11-05T07:07:15.237Z,77.81
2018-11-05T07:09:42.756Z,77.69
2018-11-05T07:12:10.180Z,77.54
2018-11-05T07:14:37.662Z,77.29
2018-11-05T07:17:05.267Z,77.32
2018-11-05T07:19:32.758Z,77.43
2018-11-05T07:22:00.717Z,77.69
2018-11-05T07:24:28.199Z,77.75
2018-11-05T07:26:56.319Z,77.50
2018-11-05T07:29:23.924Z,77.32
2018-11-05T07:31:51.419Z,77.51
2018-11-05T07:34:18.930Z,77.53
2018-11-05T07:36:46.428Z,77.25
2018-11-05T07:39:14.567Z,77.36
2018-11-05T07:41:42.038Z,77.68
2018-11-05T07:44:09.487Z,77.58
2018-11-05T07:46:36.949Z,77.45
2018-11-05T07:49:04.415Z,77.70
2018-11-05T07:51:31.880Z,77.56
2018-11-05T07:53:59.343Z,77.27
2018-11-05T07:56:26.823Z,77.19
2018-11-05T07:58:54.495Z,77.12
2018-11-05T08:01:22.000Z,77.15
2018-11-05T08:03:49.534Z,77.25
2018-11-05T08:06:17.009Z,77.21
2018-11-05T08:08:44.633Z,76.84
2018-11-05T08:11:12.182Z,76.58
2018-11-05T08:13:39.645Z,76.59
2018-11-05T08:16:07.126Z,77.09
2018-11-05T08:18:34.576Z,77.02
2018-11-05T08:21:02.029Z,76.76
2018-11-05T08:23:29.459Z,76.67
2018-11-05T08:25:56.904Z,76.52
2018-11-05T08:28:24.361Z,76.21
2018-11-05T08:30:51.829Z,76.25
2018-11-05T08:33:19.452Z,76.42
2018-11-05T08:35:47.092Z,76.42
2018-11-05T08:38:14.573Z,76.44
2018-11-05T08:40:42.045Z,76.02
2018-11-05T08:43:11.448Z,76.37
2018-11-05T08:45:38.916Z,76.68
2018-11-05T08:48:06.386Z,76.72
2018-11-05T08:50:34.019Z,76.46
2018-11-05T08:53:02.224Z,76.00
2018-11-05T08:55:29.710Z,75.83
2018-11-05T08:57:57.189Z,75.97
2018-11-05T09:00:24.944Z,75.88
2018-11-05T09:02:53.581Z,76.23
2018-11-05T09:05:21.912Z,75.95
2018-11-05T09:07:51.242Z,76.46
2018-11-05T09:10:18.971Z,76.21
2018-11-05T09:12:48.148Z,75.92
2018-11-05T09:17:49.419Z,75.55
2018-11-05T09:20:16.867Z,75.60
2018-11-05T09:22:44.431Z,75.66
2018-11-05T09:25:11.880Z,75.57
2018-11-05T09:27:39.369Z,75.97
2018-11-05T09:30:06.813Z,75.62
2018-11-05T09:32:34.326Z,75.22
2018-11-05T09:35:01.870Z,74.89
2018-11-05T09:37:29.352Z,75.15
2018-11-05T09:39:57.797Z,75.12
2018-11-05T09:42:25.454Z,75.27
2018-11-05T09:44:52.925Z,75.20
2018-11-05T09:47:20.531Z,75.31
2018-11-05T09:49:48.091Z,75.17
2018-11-05T09:52:15.535Z,74.93
2018-11-05T09:54:43.019Z,74.69
2018-11-05T09:57:10.522Z,74.54
2018-11-05T09:59:37.916Z,74.04
2018-11-05T10:02:05.422Z,74.22
2018-11-05T10:04:33.277Z,74.24
2018-11-05T10:07:00.687Z,74.50
2018-11-05T10:09:28.240Z,74.36
2018-11-05T10:11:55.707Z,73.94
2018-11-05T10:14:23.334Z,73.77
2018-11-05T10:16:50.826Z,74.18
2018-11-05T10:19:18.280Z,74.53
2018-11-05T10:21:45.742Z,74.51
2018-11-05T10:24:13.212Z,74.22
2018-11-05T10:26:40.718Z,74.08
2018-11-05T10:29:09.020Z,74.19
2018-11-05T10:31:36.593Z,74.11
2018-11-05T10:34:04.123Z,74.53
2018-11-05T10:36:31.695Z,74.68
2018-11-05T10:38:59.131Z,74.94
2018-11-05T10:41:26.662Z,74.92
2018-11-05T10:43:54.340Z,74.95
2018-11-05T10:46:21.892Z,75.24
2018-11-05T10:48:49.494Z,75.18
2018-11-05T10:51:17.076Z,74.73
2018-11-05T10:53:44.544Z,74.30
2018-11-05T10:56:12.121Z,73.89
2018-11-05T10:58:39.577Z,73.47
2018-11-05T11:01:07.066Z,73.19
2018-11-05T11:03:34.538Z,73.05
2018-11-05T11:06:02.084Z,72.64
2018-11-05T11:08:29.587Z,72.55
2018-11-05T11:10:57.297Z,72.72
2018-11-05T11:13:24.829Z,72.99
2018-11-05T11:15:52.310Z,72.58
2018-11-05T11:18:19.883Z,72.86
2018-11-05T11:20:47.422Z,72.81
2018-11-05T11:23:15.069Z,73.07
2018-11-05T11:25:42.731Z,72.91
2018-11-05T11:28:10.288Z,72.52
2018-11-05T11:30:37.764Z,72.42
2018-11-05T11:33:05.447Z,71.74
2018-11-05T11:35:32.944Z,71.22
2018-11-05T11:38:00.476Z,71.54
2018-11-05T11:40:27.964Z,71.28
2018-11-05T11:42:55.528Z,71.45
2018-11-05T11:45:23.325Z,71.88
2018-11-05T11:47:50.881Z,71.47
2018-11-05T11:50:18.464Z,71.25
2018-11-05T11:52:45.947Z,71.16
2018-11-05T11:55:13.445Z,71.62
2018-11-05T11:57:41.150Z,71.53
2018-11-05T12:00:08.650Z,71.39
2018-11-05T12:02:36.159Z,71.30
2018-11-05T12:05:03.813Z,71.42
2018-11-05T12:07:31.281Z,71.29
2018-11-05T12:09:58.838Z,71.19
2018-11-05T12:12:26.319Z,70.84
2018-11-05T12:14:53.910Z,70.49
2018-11-05T12:17:21.265Z,70.68
2018-11-05T12:19:48.746Z,70.26
2018-11-05T12:22:16.186Z,70.28
2018-11-05T12:24:43.678Z,70.56
2018-11-05T12:27:11.240Z,70.23
2018-11-05T12:29:38.727Z,70.18
2018-11-05T12:32:06.210Z,70.09
2018-11-05T12:34:33.667Z,69.91
2018-11-05T12:37:01.143Z,69.91
2018-11-05T12:39:28.613Z,69.84
2018-11-05T12:41:56.155Z,69.62
2018-11-05T12:44:23.648Z,69.29
2018-11-05T12:46:51.125Z,68.82
2018-11-05T12:49:19.571Z,68.93
2018-11-05T12:51:47.059Z,69.42
2018-11-05T12:54:14.718Z,69.05
2018-11-05T12:56:42.189Z,68.84
2018-11-05T12:59:09.766Z,68.41
2018-11-05T13:01:37.328Z,67.81
2018-11-05T13:04:05.026Z,67.17
2018-11-05T13:06:32.671Z,66.34
2018-11-05T13:09:00.235Z,65.01
2018-11-05T13:11:27.844Z,63.96
2018-11-05T13:13:55.444Z,62.88
2018-11-05T13:16:23.090Z,62.88
2018-11-05T13:18:50.749Z,61.66
2018-11-05T13:21:18.184Z,60.43
2018-11-05T13:23:45.695Z,55.85
2018-11-05T13:26:13.392Z,56.20
2018-11-05T13:28:41.010Z,55.31
2018-11-05T13:31:08.563Z,55.49
2018-11-05T13:33:36.093Z,53.59
2018-11-05T13:36:04.413Z,53.44
2018-11-05T13:38:31.958Z,54.67
2018-11-05T13:40:59.524Z,57.51
2018-11-05T13:43:27.344Z,58.22
2018-11-05T13:45:55.255Z,53.63
2018-11-05T13:48:23.103Z,51.86
2018-11-05T13:50:50.273Z,47.79
2018-11-05T13:53:17.818Z,41.35
2018-11-05T13:55:45.283Z,37.66
2018-11-05T13:58:12.774Z,36.27
2018-11-05T14:00:40.254Z,33.66
2018-11-05T14:03:07.720Z,33.36
2018-11-05T14:05:35.268Z,32.90
2018-11-05T14:08:02.857Z,31.47
2018-11-05T14:10:30.332Z,30.19
2018-11-05T14:12:57.792Z,30.75
2018-11-05T14:15:25.353Z,31.31
2018-11-05T14:17:52.909Z,31.09
2018-11-05T14:20:20.384Z,30.27
2018-11-05T14:22:47.994Z,29.67
2018-11-05T14:25:15.734Z,30.88
2018-11-05T14:27:43.662Z,31.13
2018-11-05T14:30:11.156Z,31.58
2018-11-05T14:32:38.615Z,36.64
2018-11-05T14:35:06.110Z,42.24
2018-11-05T14:37:33.661Z,42.30
2018-11-05T14:40:01.203Z,41.96
2018-11-05T14:42:28.755Z,38.92
2018-11-05T14:44:56.242Z,36.01
2018-11-05T14:47:23.840Z,38.55
2018-11-05T14:49:51.363Z,37.80
2018-11-05T14:52:18.837Z,34.50
2018-11-05T14:54:46.432Z,32.22
2018-11-05T14:57:14.135Z,30.79
2018-11-05T14:59:42.570Z,32.40
2018-11-05T15:02:10.612Z,36.68
2018-11-05T15:04:38.192Z,41.59
2018-11-05T15:07:05.757Z,41.37
2018-11-05T15:09:33.240Z,40.93
2018-11-05T15:12:00.719Z,43.67
2018-11-05T15:14:28.198Z,45.40
2018-11-05T15:16:55.684Z,48.87
2018-11-05T15:19:23.696Z,51.05
2018-11-05T15:21:50.975Z,52.20
2018-11-05T15:24:18.464Z,53.38
2018-11-05T15:26:45.983Z,54.90
2018-11-05T15:29:13.702Z,56.04
2018-11-05T15:31:41.334Z,57.18
2018-11-05T15:34:08.923Z,57.92
2018-11-05T15:36:36.428Z,59.14
2018-11-05T15:39:03.885Z,59.89
2018-11-05T15:41:31.457Z,60.92
2018-11-05T15:43:58.913Z,61.78
2018-11-05T15:46:26.399Z,62.57
2018-11-05T15:48:53.889Z,63.72
2018-11-05T15:51:21.636Z,64.08
2018-11-05T15:53:49.156Z,64.28
2018-11-05T15:56:16.611Z,64.56
2018-11-05T15:58:44.424Z,65.24
2018-11-05T16:01:11.892Z,66.09
2018-11-05T16:03:39.404Z,67.20
2018-11-05T16:06:06.863Z,67.79
2018-11-05T16:08:34.363Z,68.18
2018-11-05T16:11:01.867Z,68.67
2018-11-05T16:13:29.446Z,68.71
2018-11-05T16:15:57.223Z,69.12
2018-11-05T16:18:26.020Z,69.23
2018-11-05T16:20:53.483Z,69.56
2018-11-05T16:23:21.019Z,69.77
2018-11-05T16:25:48.620Z,69.89
2018-11-05T16:28:16.146Z,69.91
2018-11-05T16:30:43.737Z,69.91
2018-11-05T16:33:11.124Z,70.47
2018-11-05T16:35:38.682Z,71.14
2018-11-05T16:38:06.126Z,71.20
2018-11-05T16:40:33.591Z,71.33
2018-11-05T16:43:01.063Z,71.25
2018-11-05T16:45:28.621Z,71.32
2018-11-05T16:47:56.149Z,71.45
2018-11-05T16:50:23.717Z,71.76
2018-11-05T16:52:51.192Z,71.83
2018-11-05T16:55:18.980Z,71.86
2018-11-05T16:57:46.648Z,72.00
2018-11-05T17:00:14.084Z,72.14
2018-11-05T17:02:41.743Z,72.04
2018-11-05T17:05:09.168Z,72.17
2018-11-05T17:07:37.310Z,72.37
2018-11-05T17:10:04.760Z,72.80
2018-11-05T17:12:32.233Z,73.05
2018-11-05T17:14:59.821Z,72.87
2018-11-05T17:17:27.328Z,72.95
2018-11-05T17:19:54.763Z,73.18
2018-11-05T17:22:22.281Z,73.39
2018-11-05T17:24:49.738Z,73.36
2018-11-05T17:27:17.203Z,73.46
2018-11-05T17:29:44.655Z,73.66
2018-11-05T17:32:12.111Z,73.95
2018-11-05T17:34:39.684Z,73.94
2018-11-05T17:37:07.252Z,73.99
2018-11-05T17:39:34.785Z,73.91
2018-11-05T17:42:02.261Z,73.76
2018-11-05T17:44:29.719Z,73.95
2018-11-05T17:46:57.790Z,74.05
2018-11-05T17:49:25.248Z,74.32
2018-11-05T17:51:52.852Z,74.34
2018-11-05T17:54:20.295Z,74.46
2018-11-05T17:56:47.794Z,74.66
2018-11-05T17:59:15.219Z,74.84
2018-11-05T18:01:42.688Z,74.90
2018-11-05T18:04:10.711Z,74.78
2018-11-05T18:06:38.181Z,74.24
2018-11-05T18:09:05.669Z,74.27
2018-11-05T18:11:33.202Z,74.56
2018-11-05T18:14:01.113Z,74.87
2018-11-05T18:16:29.150Z,75.17
2018-11-05T18:18:56.783Z,75.40
2018-11-05T18:21:24.325Z,75.73
2018-11-05T18:23:51.813Z,75.85
2018-11-05T18:26:19.340Z,75.91
2018-11-05T18:28:46.783Z,75.88
2018-11-05T18:31:14.337Z,75.81
2018-11-05T18:33:42.099Z,75.79
2018-11-05T18:36:09.936Z,75.70
2018-11-05T18:38:37.738Z,75.70
2018-11-05T18:41:05.200Z,76.04
2018-11-05T18:43:32.787Z,75.84
2018-11-05T18:46:01.167Z,75.87
2018-11-05T18:48:28.931Z,75.84
2018-11-05T18:50:56.387Z,75.74
2018-11-05T18:53:24.263Z,75.43
2018-11-05T18:55:51.739Z,75.17
2018-11-05T18:58:19.240Z,75.33
2018-11-05T19:00:46.742Z,74.37
2018-11-05T19:03:14.300Z,74.29
2018-11-05T19:05:42.647Z,74.56
2018-11-05T19:08:10.143Z,74.92
2018-11-05T19:10:37.620Z,75.51
2018-11-05T19:13:05.607Z,75.78
2018-11-05T19:15:33.076Z,76.26
2018-11-05T19:18:00.684Z,76.76
2018-11-05T19:20:28.159Z,77.17
2018-11-05T19:22:55.949Z,77.11
2018-11-05T19:25:23.588Z,77.11
2018-11-05T19:27:51.092Z,77.24
2018-11-05T19:30:18.585Z,77.50
2018-11-05T19:32:46.036Z,77.40
2018-11-05T19:35:13.725Z,77.30
2018-11-05T19:37:41.260Z,77.21
2018-11-05T19:40:08.743Z,77.13
2018-11-05T19:42:36.588Z,77.05
2018-11-05T19:45:03.990Z,77.10
2018-11-05T19:47:31.653Z,77.08
2018-11-05T19:49:59.183Z,77.03
2018-11-05T19:52:26.694Z,77.11
2018-11-05T19:54:54.159Z,77.12
2018-11-05T19:57:21.995Z,77.13
2018-11-05T19:59:49.515Z,77.12
2018-11-05T20:02:17.056Z,77.31
2018-11-05T20:04:44.488Z,77.31
2018-11-05T20:07:11.977Z,77.20
2018-11-05T20:09:39.415Z,77.27
2018-11-05T20:12:07.256Z,77.33
2018-11-05T20:14:34.833Z,77.54
2018-11-05T20:17:02.449Z,77.54
2018-11-05T20:19:29.812Z,77.35
2018-11-05T20:21:57.272Z,77.23
2018-11-05T20:24:24.782Z,77.04
2018-11-05T20:26:52.319Z,76.90
2018-11-05T20:29:19.777Z,76.84
2018-11-05T20:31:47.593Z,77.17
2018-11-05T20:34:15.059Z,77.57
2018-11-05T20:36:42.400Z,77.87
2018-11-05T20:39:09.953Z,78.17
2018-11-05T20:41:37.391Z,78.24
2018-11-05T20:44:04.885Z,78.10
2018-11-05T20:46:32.470Z,77.95
2018-11-05T20:49:01.017Z,78.14
2018-11-05T20:51:28.484Z,78.16
2018-11-05T20:53:56.011Z,78.18
2018-11-05T20:56:23.496Z,78.47
2018-11-05T20:58:51.119Z,78.62
2018-11-05T21:01:18.695Z,78.74
2018-11-05T21:03:46.151Z,79.17
2018-11-05T21:06:13.669Z,79.24
2018-11-05T21:08:41.168Z,79.28
2018-11-05T21:11:08.656Z,79.13
2018-11-05T21:13:36.170Z,78.91
2018-11-05T21:16:03.788Z,78.60
2018-11-05T21:18:31.241Z,78.35
2018-11-05T21:20:58.733Z,78.33
2018-11-05T21:23:26.172Z,78.40
2018-11-05T21:25:53.626Z,78.45
2018-11-05T21:28:21.107Z,78.39
2018-11-05T21:30:48.657Z,78.44
2018-11-05T21:33:16.379Z,78.41
2018-11-05T21:35:43.890Z,78.32
2018-11-05T21:38:12.946Z,78.05
2018-11-05T21:40:40.465Z,78.21
2018-11-05T21:43:07.843Z,78.27
2018-11-05T21:45:35.405Z,78.27
2018-11-05T21:48:03.182Z,78.16
2018-11-05T21:50:30.686Z,78.19
2018-11-05T21:52:58.145Z,78.26
2018-11-05T21:55:25.588Z,78.15
2018-11-05T21:57:54.285Z,78.25
2018-11-05T22:00:21.804Z,78.09
2018-11-05T22:02:49.325Z,77.83
2018-11-05T22:05:16.779Z,77.65
2018-11-05T22:07:44.611Z,77.69
2018-11-05T22:10:12.278Z,77.84
2018-11-05T22:12:39.731Z,77.96
2018-11-05T22:15:07.374Z,77.92
2018-11-05T22:17:35.782Z,77.95
2018-11-05T22:20:04.985Z,78.07
2018-11-05T22:22:32.547Z,78.29
2018-11-05T22:25:00.041Z,78.43
2018-11-05T22:27:27.699Z,78.43
2018-11-05T22:29:55.624Z,78.40
2018-11-05T22:32:23.068Z,78.72
2018-11-05T22:34:50.605Z,78.78
2018-11-05T22:37:18.175Z,78.85
2018-11-05T22:39:46.287Z,78.97
2018-11-05T22:42:13.818Z,78.96
2018-11-05T22:44:41.292Z,78.89
2018-11-05T22:47:08.741Z,78.96
2018-11-05T22:49:37.320Z,79.08
2018-11-05T22:52:04.795Z,78.97
2018-11-05T22:54:33.178Z,78.86
2018-11-05T22:57:00.615Z,78.64
2018-11-05T22:59:28.567Z,78.41
2018-11-05T23:01:56.325Z,78.26
2018-11-05T23:04:23.797Z,78.15
2018-11-05T23:06:51.327Z,77.94
2018-11-05T23:09:18.774Z,77.87
2018-11-05T23:11:46.206Z,78.00
2018-11-05T23:14:13.655Z,78.14
2018-11-05T23:16:41.082Z,78.27
2018-11-05T23:19:08.693Z,78.25
2018-11-05T23:21:36.139Z,78.35
2018-11-05T23:24:03.578Z,78.49
2018-11-05T23:26:31.030Z,78.80
2018-11-05T23:28:58.481Z,78.88
2018-11-05T23:31:26.123Z,79.02
2018-11-05T23:33:53.573Z,79.17
2018-11-05T23:36:21.024Z,79.09
2018-11-05T23:38:48.493Z,79.04
2018-11-05T23:41:15.952Z,79.19
2018-11-05T23:43:44.280Z,79.50
2018-11-05T23:46:11.993Z,79.62
2018-11-05T23:48:39.436Z,79.59
2018-11-05T23:51:06.911Z,79.42
2018-11-05T23:53:34.365Z,79.35
2018-11-05T23:56:01.836Z,79.23
2018-11-05T23:58:29.276Z,79.09
